This is the latest recevied weather packets stored in our database for station/object N9JXN-13. If no packets are shown the sender has not sent any weather packets the latest 10 day(s).
| Time | Temp. | Humidity | Pressure | Rain* | Wind** | Luminosity | Snow |
|---|---|---|---|---|---|---|---|
| 1777616958 | 5.56° C | 94% | 1014.3 hPa | 0 mm | - | 0 W/m² | - |
| 1777615157 | 5.56° C | 94% | 1014.3 hPa | 0 mm | - | 0 W/m² | - |
| 1777614259 | 6.11° C | 95% | 1014.3 hPa | 0 mm | - | 0 W/m² | - |
| 1777608919 | 7.78° C | 94% | 1014 hPa | 1.78 mm | - | 0 W/m² | - |
| 1777607719 | 8.33° C | 94% | 1014 hPa | 1.78 mm | - | 0 W/m² | - |
| 1777606521 | 8.33° C | 94% | 1014.1 hPa | 1.78 mm | - | 0 W/m² | - |
| 1777602919 | 8.89° C | 93% | 1014.3 hPa | 1.52 mm | - | 0 W/m² | - |
| 1777600818 | 9.44° C | 90% | 1014 hPa | 0.76 mm | - | 0 W/m² | - |
| 1777599318 | 9.44° C | 87% | 1014.1 hPa | 0 mm | - | 0 W/m² | - |
| 1777599018 | 9.44° C | 86% | 1014 hPa | 0 mm | - | 0 W/m² | - |
| 1777598119 | 10° C | 85% | 1013.8 hPa | 0 mm | - | 0 W/m² | - |
| 1777597819 | 10° C | 86% | 1013.7 hPa | 0 mm | - | 0 W/m² | - |
| 1777596918 | 10° C | 86% | 1013.5 hPa | 0 mm | - | 0 W/m² | - |
| 1777596019 | 10.56° C | 84% | 1013.5 hPa | 0 mm | - | 0 W/m² | - |
| 1777595719 | 10.56° C | 83% | 1013.4 hPa | 0 mm | - | 0 W/m² | - |
| 1777595418 | 10.56° C | 82% | 1013.4 hPa | 0 mm | - | 5 W/m² | - |
| 1777594818 | 10.56° C | 81% | 1013.4 hPa | 0 mm | - | 12 W/m² | - |
| 1777591818 | 11.67° C | 74% | 1013.4 hPa | 0 mm | - | 69 W/m² | - |
| 1777589418 | 11.67° C | 78% | 1013.7 hPa | 0.25 mm | - | 46 W/m² | - |
| 1777588818 | 11.67° C | 79% | 1013.7 hPa | 0.25 mm | - | 58 W/m² | - |
| 1777587918 | 11.11° C | 79% | 1013.7 hPa | 0.25 mm | - | 56 W/m² | - |
| 1777587618 | 11.11° C | 77% | 1013.7 hPa | 0.25 mm | - | 83 W/m² | - |
| 1777585519 | 13.33° C | 61% | 1013.9 hPa | 0 mm | - | 32 W/m² | - |
| 1777580118 | 15° C | 50% | 1014.1 hPa | 0 mm | - | 186 W/m² | - |
| 1777578919 | 15° C | 49% | 1014.2 hPa | 0 mm | - | 176 W/m² | - |
* Rain latest hour (hover to see other rain measurements)
** Current wind speed in m/s (hover to see current wind gust speed)